Evanston Uinta County Burns Field
KEVW : now visible

Airfield :











YOU CAN JOIN US ON...

 
LOGIN :

Register | Disclaimer

   EN    FR    IT 

 









Legend :    VFR   Marginal VFR   IFR   Intensive IFR   Very Intensive IFR
Visi :
Ceiling :
>= 8 km
>= 3000ft
5 to 8 km
1000 to 3000 ft
1500m to 5 km
500 to 1000 ft
800 to 1500m
200 to 500 ft
< 800m
< 200 ft
Symbols :   Thunderstorms  Fog  Heavy snow  Heavy precipitations  Wind > 20 kt






- Airport Elevation : 7143 ft


KEVW - Evanston Uinta County Burns Field

CURRENT METAR :
  • 172053Z AUTO 26014KT 10SM CLR M05/M15 A3000 RMK AO2 SLP188 T10501150 58011

EXPIRED METARs :
  • 171953Z AUTO 25012KT 10SM CLR M06/M15 A3001 RMK AO2 SLP197 T10611150
  • 171853Z AUTO 25015KT 10SM CLR M06/M15 A3003 RMK AO2 SLP197 T10611150

TAF KEVW
Valid from the 17 at 18:00 until the 18 at 18:00 UTC


171720Z 1718/1818 23011KT P6SM SCT080 SCT120
FM172100 26014KT P6SM SCT040 BKN080
FM180300 26006KT P6SM SCT080 SCT120



MET'MAP, your aeronautical weather chart ! - Copyright ORBIFLY December 2007 - Disclaimer

ORBIFLY MET'MAP TEAM :

Programming & Development : Alexandra Zaïnal
Concept & original design : Baudouin d'Aumeries
Assistance for programming : Marc-Olivier Méhu
Technical & hardware support : Manuel Goepfert

Contact : metmap@orbifly.com




SOURCES & CREDITS :

   NOAA       Earth
Advisory